createdAt,value
2022-08-17T00:00:43.005Z,99.9
2022-08-17T00:10:32.566Z,99.9
2022-08-17T00:18:01.663Z,99.9
2022-08-17T00:25:31.722Z,99.9
2022-08-17T00:30:31.772Z,99.9
2022-08-17T00:35:31.818Z,99.9
2022-08-17T00:38:01.838Z,99.9
2022-08-17T00:40:44.359Z,99.9
2022-08-17T00:43:01.880Z,99.9
2022-08-17T00:48:01.966Z,99.9
2022-08-17T00:50:31.944Z,99.9
2022-08-17T00:53:01.971Z,99.9
2022-08-17T00:55:32.004Z,99.9
2022-08-17T01:03:02.075Z,99.9
2022-08-17T01:05:32.145Z,99.9
2022-08-17T01:08:02.133Z,99.9
2022-08-17T01:13:02.179Z,99.9
2022-08-17T01:15:32.191Z,99.9
2022-08-17T01:18:02.232Z,99.9
2022-08-17T01:20:32.242Z,99.9
2022-08-17T01:23:02.257Z,99.9
2022-08-17T01:25:32.303Z,99.9
2022-08-17T01:28:02.329Z,99.9
2022-08-17T01:30:58.469Z,99.9
2022-08-17T01:33:02.357Z,99.9
2022-08-17T01:43:02.475Z,99.9
2022-08-17T01:48:02.521Z,99.9
2022-08-17T01:50:32.523Z,99.9
2022-08-17T01:53:02.570Z,99.9
2022-08-17T01:55:32.587Z,99.9
2022-08-17T01:58:02.601Z,99.9
2022-08-17T02:00:51.739Z,99.9
2022-08-17T02:05:32.698Z,99.9
2022-08-17T02:08:02.697Z,99.9
2022-08-17T02:10:33.657Z,99.9
2022-08-17T02:13:02.726Z,99.9
2022-08-17T02:20:36.437Z,99.9
2022-08-17T02:25:32.866Z,99.9
2022-08-17T02:31:00.790Z,99.9
2022-08-17T02:33:04.137Z,99.9
2022-08-17T02:35:33.126Z,99.9
2022-08-17T02:38:02.973Z,99.9
2022-08-17T02:43:03.032Z,99.9
2022-08-17T02:45:33.042Z,99.9
2022-08-17T02:48:03.099Z,99.9
2022-08-17T02:50:33.100Z,99.9
2022-08-17T02:55:33.146Z,99.9
2022-08-17T02:58:03.166Z,99.9
2022-08-17T03:00:33.183Z,99.9
2022-08-17T03:03:03.209Z,99.9
2022-08-17T03:05:33.231Z,99.9
2022-08-17T03:08:03.284Z,99.9
2022-08-17T03:10:33.273Z,99.9
2022-08-17T03:15:33.328Z,99.9
2022-08-17T03:18:03.371Z,99.9
2022-08-17T03:25:33.435Z,99.9
2022-08-17T03:28:03.460Z,99.9
2022-08-17T03:33:03.508Z,99.9
2022-08-17T03:35:33.526Z,99.9
2022-08-17T03:38:03.623Z,99.9
2022-08-17T03:45:33.605Z,99.9
2022-08-17T03:48:03.630Z,99.9
2022-08-17T03:50:33.677Z,99.9
2022-08-17T03:53:03.691Z,99.9
2022-08-17T03:55:36.158Z,99.9
2022-08-17T03:58:03.738Z,99.9
2022-08-17T04:00:33.744Z,99.9
2022-08-17T04:03:03.791Z,99.9
2022-08-17T04:05:34.528Z,99.9
2022-08-17T04:08:03.848Z,99.9
2022-08-17T04:10:33.984Z,99.9
2022-08-17T04:15:33.909Z,99.9
2022-08-17T04:18:03.936Z,99.9
2022-08-17T04:20:33.942Z,99.9
2022-08-17T04:23:03.963Z,99.9
2022-08-17T04:28:04.017Z,99.9
2022-08-17T04:30:34.051Z,99.9
2022-08-17T04:33:19.221Z,99.9
2022-08-17T04:35:34.090Z,99.9
2022-08-17T04:38:04.122Z,99.9
2022-08-17T04:40:34.184Z,99.9
2022-08-17T04:43:04.182Z,99.9
2022-08-17T04:45:34.196Z,99.9
2022-08-17T04:48:04.201Z,99.9
2022-08-17T04:50:34.227Z,99.9
2022-08-17T04:53:04.269Z,99.9
2022-08-17T04:55:34.290Z,99.9
2022-08-17T04:58:04.298Z,99.9
2022-08-17T05:00:34.349Z,99.9
2022-08-17T05:03:04.379Z,99.9
2022-08-17T05:05:34.365Z,99.9
2022-08-17T05:08:04.420Z,99.9
2022-08-17T05:10:34.423Z,99.9
2022-08-17T05:13:04.452Z,99.9
2022-08-17T05:15:36.006Z,99.9
2022-08-17T05:18:04.537Z,99.9
2022-08-17T05:20:34.536Z,99.9
2022-08-17T05:25:36.215Z,99.9
2022-08-17T05:28:04.609Z,99.9
2022-08-17T05:30:34.629Z,99.9
2022-08-17T05:38:04.688Z,99.9
2022-08-17T05:43:04.720Z,99.9
2022-08-17T05:45:55.166Z,99.9
2022-08-17T05:48:04.787Z,99.9
2022-08-17T05:50:34.796Z,99.9
2022-08-17T05:53:04.830Z,99.9
2022-08-17T05:58:04.860Z,99.9
2022-08-17T06:00:34.913Z,99.9
2022-08-17T06:03:04.947Z,99.9
2022-08-17T06:05:34.942Z,99.9
2022-08-17T06:08:04.966Z,99.9
2022-08-17T06:10:34.996Z,99.9
2022-08-17T06:13:05.012Z,99.9
2022-08-17T06:15:35.035Z,99.9
2022-08-17T06:18:05.101Z,99.9
2022-08-17T06:20:35.096Z,99.9
2022-08-17T06:25:35.137Z,99.9
2022-08-17T06:28:05.175Z,99.9
2022-08-17T06:30:57.504Z,99.9
2022-08-17T06:33:05.210Z,99.9
2022-08-17T06:35:35.227Z,99.9
2022-08-17T06:38:05.248Z,99.9
2022-08-17T06:45:35.312Z,99.9
2022-08-17T06:48:05.978Z,99.9
2022-08-17T06:50:35.377Z,99.9
2022-08-17T06:55:38.155Z,99.9
2022-08-17T07:00:35.510Z,99.9
2022-08-17T07:03:05.866Z,99.9
2022-08-17T07:05:35.497Z,99.9
2022-08-17T07:08:05.553Z,99.9
2022-08-17T07:13:05.585Z,99.9
2022-08-17T07:15:35.596Z,99.9
2022-08-17T07:18:05.632Z,99.9
2022-08-17T07:20:35.664Z,99.9
2022-08-17T07:23:05.671Z,99.9
2022-08-17T07:25:35.684Z,99.9
2022-08-17T07:28:07.171Z,99.9
2022-08-17T07:30:44.666Z,99.9
2022-08-17T07:33:05.774Z,99.9
2022-08-17T07:35:40.883Z,99.9
2022-08-17T07:38:05.842Z,99.9
2022-08-17T07:45:35.895Z,99.9
2022-08-17T07:48:05.928Z,99.9
2022-08-17T07:50:35.933Z,99.9
2022-08-17T07:53:05.967Z,99.9
2022-08-17T07:55:35.983Z,99.9
2022-08-17T07:58:06.034Z,99.9
2022-08-17T08:00:36.051Z,99.9
2022-08-17T08:03:06.067Z,99.9
2022-08-17T08:05:50.569Z,99.9
2022-08-17T08:08:06.102Z,99.9
2022-08-17T08:10:36.137Z,99.9
2022-08-17T08:15:36.183Z,99.9
2022-08-17T08:18:06.197Z,99.9
2022-08-17T08:20:52.072Z,99.9
2022-08-17T08:23:06.236Z,99.9
2022-08-17T08:28:06.331Z,99.9
2022-08-17T08:30:36.330Z,99.9
2022-08-17T08:33:06.345Z,99.9
2022-08-17T08:35:36.373Z,99.9
2022-08-17T08:38:06.393Z,99.9
2022-08-17T08:40:36.432Z,99.9
2022-08-17T08:43:06.457Z,99.9
2022-08-17T08:45:36.465Z,99.9
2022-08-17T08:48:06.494Z,99.9
2022-08-17T08:50:38.111Z,99.9
2022-08-17T08:55:36.569Z,99.9
2022-08-17T08:58:06.577Z,99.9
2022-08-17T09:00:36.605Z,99.9
2022-08-17T09:03:06.635Z,99.9
2022-08-17T09:05:36.656Z,99.9
2022-08-17T09:10:36.715Z,99.9
2022-08-17T09:13:10.127Z,99.9
2022-08-17T09:15:36.755Z,99.9
2022-08-17T09:19:00.795Z,99.9
2022-08-17T09:20:36.789Z,99.9
2022-08-17T09:23:06.820Z,99.9
2022-08-17T09:25:36.821Z,99.9
2022-08-17T09:28:06.865Z,99.9
2022-08-17T09:30:36.872Z,99.9
2022-08-17T09:33:06.921Z,99.9
2022-08-17T09:35:37.555Z,99.9
2022-08-17T09:38:06.956Z,99.9
2022-08-17T09:40:36.975Z,99.9
2022-08-17T09:43:07.023Z,99.9
2022-08-17T09:45:37.016Z,99.9
2022-08-17T09:48:07.081Z,99.9
2022-08-17T09:53:10.948Z,99.9
2022-08-17T09:55:37.478Z,99.9
2022-08-17T09:58:07.158Z,99.8
2022-08-17T10:00:37.174Z,99.6
2022-08-17T10:05:37.216Z,99.2
2022-08-17T10:08:07.243Z,98.4
2022-08-17T10:10:37.280Z,98.2
2022-08-17T10:13:09.516Z,97.9
2022-08-17T10:15:37.319Z,98
2022-08-17T10:18:07.339Z,97.8
2022-08-17T10:20:37.359Z,97.6
2022-08-17T10:23:07.392Z,97.7
2022-08-17T10:25:53.986Z,97.6
2022-08-17T10:28:07.442Z,97.6
2022-08-17T10:30:37.466Z,97.3
2022-08-17T10:33:07.488Z,97.1
2022-08-17T10:35:37.489Z,96.9
2022-08-17T10:38:07.526Z,96.8
2022-08-17T10:40:37.568Z,96.6
2022-08-17T10:43:07.579Z,96.2
2022-08-17T10:45:37.598Z,95.9
2022-08-17T10:48:08.008Z,95.8
2022-08-17T10:50:37.648Z,95.8
2022-08-17T10:53:07.673Z,95.5
2022-08-17T10:55:37.685Z,95.5
2022-08-17T10:58:07.706Z,95.5
2022-08-17T11:00:37.828Z,95.5
2022-08-17T11:03:07.778Z,95.6
2022-08-17T11:05:41.459Z,95.6
2022-08-17T11:08:07.825Z,95.6
2022-08-17T11:10:37.828Z,95.8
2022-08-17T11:13:07.845Z,95.8
2022-08-17T11:15:37.886Z,95.9
2022-08-17T11:18:07.915Z,95.9
2022-08-17T11:20:37.930Z,95.9
2022-08-17T11:23:12.625Z,96.1
2022-08-17T11:25:37.967Z,95.8
2022-08-17T11:28:08.018Z,95.9
2022-08-17T11:30:38.244Z,96
2022-08-17T11:33:08.051Z,96
2022-08-17T11:35:38.068Z,96.1
2022-08-17T11:38:13.867Z,96.1
2022-08-17T11:40:38.115Z,96.5
2022-08-17T11:43:08.141Z,96.8
2022-08-17T11:45:38.170Z,97
2022-08-17T11:48:27.056Z,97.1
2022-08-17T11:50:38.224Z,97
2022-08-17T11:53:08.266Z,97.2
2022-08-17T11:55:40.775Z,97.2
2022-08-17T11:58:08.294Z,97
2022-08-17T12:00:38.312Z,97.1
2022-08-17T12:03:08.392Z,97.4
2022-08-17T12:05:38.351Z,97.9
2022-08-17T12:08:08.374Z,98.3
2022-08-17T12:10:38.403Z,98.7
2022-08-17T12:15:38.456Z,99.3
2022-08-17T12:18:08.486Z,99.6
2022-08-17T12:20:38.500Z,99.7
2022-08-17T12:23:08.544Z,99.9
2022-08-17T12:25:38.540Z,99.9
2022-08-17T12:28:08.699Z,99.9
2022-08-17T12:30:38.599Z,99.9
2022-08-17T12:33:13.638Z,99.9
2022-08-17T12:35:38.655Z,99.9
2022-08-17T12:38:32.601Z,99.9
2022-08-17T12:40:38.695Z,99.9
2022-08-17T12:43:08.722Z,99.9
2022-08-17T12:45:38.773Z,99.9
2022-08-17T12:48:08.788Z,99.9
2022-08-17T12:50:38.812Z,99.9
2022-08-17T12:53:08.807Z,99.9
2022-08-17T12:55:38.972Z,99.9
2022-08-17T12:58:13.621Z,99.9
2022-08-17T13:03:08.919Z,99.9
2022-08-17T13:05:38.924Z,99.9
2022-08-17T13:08:08.963Z,99.9
2022-08-17T13:10:38.970Z,99.9
2022-08-17T13:13:09.027Z,99.9
2022-08-17T13:15:44.572Z,99.9
2022-08-17T13:18:09.060Z,99.9
2022-08-17T13:20:39.073Z,99.9
2022-08-17T13:23:12.385Z,99.9
2022-08-17T13:25:39.139Z,99.9
2022-08-17T13:28:09.158Z,99.9
2022-08-17T13:30:39.182Z,99.9
2022-08-17T13:33:09.201Z,99.9
2022-08-17T13:35:40.377Z,99.9
2022-08-17T13:43:09.294Z,99.9
2022-08-17T13:45:39.620Z,99.9
2022-08-17T13:48:12.574Z,99.9
2022-08-17T13:50:39.365Z,99.9
2022-08-17T13:53:09.398Z,99.9
2022-08-17T13:55:39.422Z,99.9
2022-08-17T13:58:09.451Z,99.9
2022-08-17T14:00:39.474Z,99.9
2022-08-17T14:03:09.636Z,99.9
2022-08-17T14:05:39.502Z,99.9
2022-08-17T14:08:09.537Z,99.9
2022-08-17T14:10:39.558Z,99.9
2022-08-17T14:13:09.573Z,99.9
2022-08-17T14:15:55.024Z,99.9
2022-08-17T14:18:09.621Z,99.9
2022-08-17T14:20:39.659Z,99.9
2022-08-17T14:23:09.766Z,99.9
2022-08-17T14:25:39.709Z,99.9
2022-08-17T14:28:09.715Z,99.9
2022-08-17T14:30:39.751Z,99.9
2022-08-17T14:33:09.776Z,99.9
2022-08-17T14:35:39.811Z,99.9
2022-08-17T14:38:09.829Z,99.9
2022-08-17T14:40:39.839Z,99.9
2022-08-17T14:43:09.866Z,99.9
2022-08-17T14:45:39.875Z,99.9
2022-08-17T14:50:39.924Z,99.9
2022-08-17T14:53:10.083Z,99.9
2022-08-17T14:55:40.098Z,99.9
2022-08-17T14:58:09.995Z,99.9
2022-08-17T15:00:40.029Z,99.9
2022-08-17T15:03:10.111Z,99.9
2022-08-17T15:05:40.079Z,99.9
2022-08-17T15:10:40.147Z,99.9
2022-08-17T15:13:10.171Z,99.9
2022-08-17T15:18:10.206Z,99.9
2022-08-17T15:23:10.233Z,99.9
2022-08-17T15:25:40.288Z,99.9
2022-08-17T15:28:10.297Z,99.9
2022-08-17T15:30:40.375Z,99.9
2022-08-17T15:33:10.359Z,99.9
2022-08-17T15:35:40.358Z,99.9
2022-08-17T15:40:40.419Z,99.9
2022-08-17T15:43:10.475Z,99.9
2022-08-17T15:45:40.447Z,99.9
2022-08-17T15:48:10.590Z,99.9
2022-08-17T15:50:40.531Z,99.9
2022-08-17T15:53:10.549Z,99.9
2022-08-17T15:55:40.554Z,99.9
2022-08-17T15:58:10.582Z,99.9
2022-08-17T16:01:03.245Z,99.9
2022-08-17T16:03:45.049Z,99.9
2022-08-17T16:08:10.670Z,99.9
2022-08-17T16:10:40.699Z,99.9
2022-08-17T16:15:40.757Z,99.9
2022-08-17T16:20:40.831Z,99.9
2022-08-17T16:23:10.826Z,99.9
2022-08-17T16:25:53.157Z,99.9
2022-08-17T16:30:40.915Z,99.9
2022-08-17T16:35:40.935Z,99.9
2022-08-17T16:38:10.956Z,99.9
2022-08-17T16:43:10.994Z,99.9
2022-08-17T16:45:41.154Z,99.9
2022-08-17T16:48:11.072Z,99.9
2022-08-17T16:50:41.068Z,99.9
2022-08-17T16:53:11.098Z,99.9
2022-08-17T16:58:11.167Z,99.9
2022-08-17T17:00:41.256Z,99.9
2022-08-17T17:03:19.355Z,99.9
2022-08-17T17:05:41.232Z,99.9
2022-08-17T17:08:11.258Z,99.9
2022-08-17T17:10:41.282Z,99.9
2022-08-17T17:13:11.297Z,99.9
2022-08-17T17:15:41.306Z,99.9
2022-08-17T17:18:11.339Z,99.9
2022-08-17T17:20:41.367Z,99.9
2022-08-17T17:23:11.391Z,99.9
2022-08-17T17:25:41.411Z,99.9
2022-08-17T17:28:11.427Z,99.9
2022-08-17T17:30:41.444Z,99.9
2022-08-17T17:33:11.480Z,99.9
2022-08-17T17:43:37.200Z,99.9
2022-08-17T17:45:41.606Z,99.9
2022-08-17T17:48:11.618Z,99.9
2022-08-17T17:50:41.659Z,99.9
2022-08-17T17:53:11.664Z,99.9
2022-08-17T17:55:41.696Z,99.9
2022-08-17T18:00:41.741Z,99.9
2022-08-17T18:03:11.945Z,99.9
2022-08-17T18:08:11.825Z,99.9
2022-08-17T18:13:11.891Z,99.9
2022-08-17T18:15:41.872Z,99.9
2022-08-17T18:20:55.707Z,99.9
2022-08-17T18:23:11.949Z,99.9
2022-08-17T18:28:12.014Z,99.9
2022-08-17T18:30:42.038Z,99.9
2022-08-17T18:33:12.048Z,99.9
2022-08-17T18:35:42.093Z,99.9
2022-08-17T18:38:15.548Z,99.9
2022-08-17T18:43:12.146Z,99.9
2022-08-17T18:45:42.432Z,99.9
2022-08-17T18:48:12.188Z,99.9
2022-08-17T18:50:42.325Z,99.9
2022-08-17T18:58:12.536Z,99.9
2022-08-17T19:00:42.381Z,99.9
2022-08-17T19:03:12.454Z,99.9
2022-08-17T19:05:42.368Z,99.9
2022-08-17T19:08:12.443Z,99.9
2022-08-17T19:10:45.976Z,99.9
2022-08-17T19:13:13.790Z,99.9
2022-08-17T19:15:42.447Z,99.9
2022-08-17T19:25:42.547Z,99.9
2022-08-17T19:30:42.587Z,99.9
2022-08-17T19:33:12.628Z,99.9
2022-08-17T19:35:42.645Z,99.9
2022-08-17T19:40:52.783Z,99.9
2022-08-17T19:43:12.708Z,99.9
2022-08-17T19:45:42.794Z,99.9
2022-08-17T19:48:12.777Z,99.9
2022-08-17T19:50:42.813Z,99.9
2022-08-17T19:53:12.821Z,99.9
2022-08-17T19:55:42.844Z,99.9
2022-08-17T19:58:12.849Z,99.9
2022-08-17T20:03:16.586Z,99.9
2022-08-17T20:06:08.828Z,99.9
2022-08-17T20:08:12.970Z,99.9
2022-08-17T20:10:42.985Z,99.9
2022-08-17T20:15:43.013Z,99.9
2022-08-17T20:18:13.056Z,99.9
2022-08-17T20:20:43.062Z,99.9
2022-08-17T20:23:13.242Z,99.9
2022-08-17T20:25:43.121Z,99.9
2022-08-17T20:30:43.156Z,99.9
2022-08-17T20:33:13.351Z,99.9
2022-08-17T20:35:43.213Z,99.9
2022-08-17T20:38:13.234Z,99.9
2022-08-17T20:45:43.299Z,99.9
2022-08-17T20:48:36.083Z,99.9
2022-08-17T20:50:43.344Z,99.9
2022-08-17T20:55:52.621Z,99.9
2022-08-17T20:58:13.428Z,99.9
2022-08-17T21:00:43.461Z,99.9
2022-08-17T21:03:13.485Z,99.9
2022-08-17T21:08:13.520Z,99.9
2022-08-17T21:10:43.535Z,99.9
2022-08-17T21:13:13.858Z,99.9
2022-08-17T21:20:43.659Z,99.9
2022-08-17T21:23:16.889Z,99.9
2022-08-17T21:25:43.713Z,99.9
2022-08-17T21:30:44.598Z,99.9
2022-08-17T21:33:13.746Z,99.9
2022-08-17T21:38:13.786Z,99.9
2022-08-17T21:40:43.832Z,99.9
2022-08-17T21:43:13.840Z,99.9
2022-08-17T21:48:13.890Z,99.9
2022-08-17T21:50:43.922Z,99.9
2022-08-17T21:53:13.944Z,99.9
2022-08-17T21:55:43.959Z,99.9
2022-08-17T22:00:44.301Z,99.9
2022-08-17T22:03:14.061Z,99.9
2022-08-17T22:08:16.518Z,99.9
2022-08-17T22:10:44.097Z,99.9
2022-08-17T22:18:14.157Z,99.9
2022-08-17T22:20:44.192Z,99.9
2022-08-17T22:23:14.247Z,99.9
2022-08-17T22:25:44.233Z,99.9
2022-08-17T22:30:44.301Z,99.9
2022-08-17T22:33:14.329Z,99.9
2022-08-17T22:45:44.447Z,99.9
2022-08-17T22:48:14.451Z,99.9
2022-08-17T22:50:44.488Z,99.9
2022-08-17T22:53:14.531Z,99.9
2022-08-17T23:00:44.592Z,99.9
2022-08-17T23:03:14.686Z,99.9
2022-08-17T23:05:44.624Z,99.9
2022-08-17T23:10:44.692Z,99.9
2022-08-17T23:13:14.690Z,99.9
2022-08-17T23:15:44.721Z,99.9
2022-08-17T23:23:14.804Z,99.9
2022-08-17T23:25:44.800Z,99.9
2022-08-17T23:30:44.861Z,99.9
2022-08-17T23:33:14.884Z,99.9
2022-08-17T23:35:44.927Z,99.9
2022-08-17T23:50:45.052Z,99.9
2022-08-17T23:53:15.083Z,99.9
2022-08-17T23:58:15.116Z,99.9
